KJYO

Leesburg Executive Airport

Leesburg, Virginia, USA
METAR KJYO 180255Z AUTO 00000KT 10SM OVC050 06/02 A3016 RMK AO2
Observed Flight Rules
Dec-18 @ 02:55 UTC (25 minutes ago) Visual Flight Rules
Wind Visibility Clouds
Calm 10 miles
  • Overcast at 5,000' AGL
Temperatures Readings
Current 6°C / 43°F
Dewpoint 2°C / 36°F
Humidity 76%
Altimeter 30.16" Hg
Pressure 1021 hPa
Elevation 119
METAR KJYO 180255Z AUTO 00000KT 10SM OVC050 06/02 A3016 RMK AO2
Observed Flight Rules
Dec-18 @ 02:55 UTC
(25 minutes ago)
VFR
Wind Visibility
Calm 10 miles
Clouds
  • Overcast at 5,000' AGL
Temperature Dewpoint
6°C / 43°F 2°C / 36°F
Humidity Altimeter Pressure
76% 30.16" Hg 1021 hPa